Ship Bottom, New Jersey
Current Conditions -  °F | °C
As of 12:35 PM on Thursday 27 Nov 2014 (Local Time) from KMJX Reporting Station
Overcast Overcast  
Wind Chill:   Ceiling: 1900
Heat Index:   Visibility: 10mi
Dew Point:   Wind: 3mph
Humidity: 75%   Direction: 290°WNW
Pressure: 30"   Gusts: NA
Location:  39.623°N, 74.1974°W
Report Text: KMJX 271735Z AUTO 29003KT 10SM BKN019 OVC024 04/00 A3000 RMK AO1
Loading
Personal Weather Stations






























Interactive Weather Map New forecast layout! Learn more

10-Day Weather Forecast

Advertisements
Track Severe Weather on mobile